createdAt,value
2023-01-07T00:02:14.955Z,72.62
2023-01-07T00:07:35.830Z,72.82
2023-01-07T00:12:56.731Z,72.43
2023-01-07T00:18:17.462Z,73.11
2023-01-07T00:23:39.985Z,72.85
2023-01-07T00:29:01.113Z,72.68
2023-01-07T00:34:23.616Z,72.62
2023-01-07T00:39:44.157Z,72.98
2023-01-07T00:45:05.265Z,72.68
2023-01-07T00:50:32.317Z,72.78
2023-01-07T00:55:53.331Z,73.09
2023-01-07T01:01:14.131Z,72.60
2023-01-07T01:06:35.265Z,72.71
2023-01-07T01:11:56.033Z,72.47
2023-01-07T01:17:17.267Z,72.39
2023-01-07T01:22:38.296Z,72.27
2023-01-07T01:27:59.452Z,72.62
2023-01-07T01:33:20.436Z,72.41
2023-01-07T01:38:42.021Z,72.70
2023-01-07T01:44:35.754Z,72.67
2023-01-07T01:50:21.969Z,72.74
2023-01-07T01:55:48.652Z,72.29
2023-01-07T02:01:09.780Z,72.42
2023-01-07T02:06:34.416Z,72.49
2023-01-07T02:12:09.020Z,72.46
2023-01-07T02:17:49.623Z,72.42
2023-01-07T02:23:23.709Z,72.38
2023-01-07T02:28:54.388Z,72.48
2023-01-07T02:34:28.594Z,72.66
2023-01-07T02:40:06.888Z,72.31
2023-01-07T02:45:30.869Z,72.44
2023-01-07T02:50:52.407Z,72.13
2023-01-07T02:56:28.451Z,71.97
2023-01-07T03:02:09.724Z,72.08
2023-01-07T03:08:04.544Z,71.75
2023-01-07T03:13:35.268Z,72.04
2023-01-07T03:19:07.039Z,71.80
2023-01-07T03:24:31.221Z,72.00
2023-01-07T03:29:54.191Z,71.86
2023-01-07T03:35:15.483Z,71.85
2023-01-07T03:40:37.470Z,72.00
2023-01-07T03:45:59.728Z,72.36
2023-01-07T03:51:21.957Z,72.07
2023-01-07T03:56:43.207Z,72.08
2023-01-07T04:02:04.111Z,72.41
2023-01-07T04:07:25.917Z,72.39
2023-01-07T04:12:46.529Z,72.21
2023-01-07T04:18:08.655Z,72.33
2023-01-07T04:23:29.572Z,72.02
2023-01-07T04:28:50.302Z,72.42
2023-01-07T04:34:11.125Z,72.38
2023-01-07T04:39:31.831Z,72.25
2023-01-07T04:44:53.419Z,72.37
2023-01-07T04:50:14.862Z,72.38
2023-01-07T04:55:36.110Z,72.57
2023-01-07T05:00:59.421Z,72.66
2023-01-07T05:06:22.034Z,72.24
2023-01-07T05:11:42.780Z,72.27
2023-01-07T05:17:04.523Z,72.00
2023-01-07T05:22:26.511Z,72.35
2023-01-07T05:27:47.513Z,72.11
2023-01-07T05:33:08.927Z,71.96
2023-01-07T05:38:31.401Z,72.00
2023-01-07T05:43:51.987Z,72.34
2023-01-07T05:49:12.989Z,72.04
2023-01-07T05:54:33.939Z,72.69
2023-01-07T05:59:54.664Z,72.45
2023-01-07T06:05:15.485Z,72.32
2023-01-07T06:10:37.001Z,72.96
2023-01-07T06:16:06.629Z,72.46
2023-01-07T06:21:27.602Z,72.38
2023-01-07T06:26:48.538Z,72.42
2023-01-07T06:32:10.096Z,72.76
2023-01-07T06:37:31.087Z,72.36
2023-01-07T06:42:51.910Z,72.70
2023-01-07T06:48:12.564Z,72.55
2023-01-07T06:53:33.353Z,72.64
2023-01-07T06:58:54.045Z,72.45
2023-01-07T07:04:15.005Z,72.55
2023-01-07T07:09:35.915Z,72.18
2023-01-07T07:14:56.582Z,71.88
2023-01-07T07:20:17.261Z,72.29
2023-01-07T07:25:38.136Z,72.47
2023-01-07T07:30:58.839Z,72.60
2023-01-07T07:36:19.557Z,72.15
2023-01-07T07:41:40.378Z,72.00
2023-01-07T07:47:03.513Z,72.05
2023-01-07T07:52:24.844Z,72.07
2023-01-07T07:57:45.456Z,71.88
2023-01-07T08:03:06.651Z,72.62
2023-01-07T08:08:27.500Z,72.08
2023-01-07T08:13:48.202Z,72.15
2023-01-07T08:19:09.040Z,72.76
2023-01-07T08:24:29.831Z,72.26
2023-01-07T08:29:50.598Z,72.12
2023-01-07T08:35:11.926Z,71.82
2023-01-07T08:40:33.236Z,72.32
2023-01-07T08:45:54.377Z,72.10
2023-01-07T08:51:15.133Z,72.52
2023-01-07T08:56:35.762Z,72.23
2023-01-07T09:01:56.554Z,71.70
2023-01-07T09:07:17.084Z,71.63
2023-01-07T09:12:38.438Z,71.64
2023-01-07T09:17:59.218Z,71.80
2023-01-07T09:23:19.799Z,71.64
2023-01-07T09:28:40.370Z,71.66
2023-01-07T09:34:01.577Z,71.16
2023-01-07T09:39:22.620Z,73.19
2023-01-07T09:44:52.483Z,71.37
2023-01-07T09:50:16.523Z,71.42
2023-01-07T09:56:11.477Z,70.89
2023-01-07T10:01:27.347Z,71.02
2023-01-07T10:07:19.917Z,70.50
2023-01-07T10:13:30.671Z,70.91
2023-01-07T10:18:54.328Z,70.99
2023-01-07T10:24:27.468Z,70.83
2023-01-07T10:29:55.474Z,70.89
2023-01-07T10:35:21.411Z,70.91
2023-01-07T10:40:50.642Z,70.70
2023-01-07T10:46:39.342Z,70.27
2023-01-07T10:52:09.523Z,70.30
2023-01-07T10:57:31.886Z,70.49
2023-01-07T11:02:58.237Z,70.62
2023-01-07T11:08:50.132Z,70.52
2023-01-07T11:14:24.557Z,70.36
2023-01-07T11:19:49.237Z,70.10
2023-01-07T11:25:29.162Z,69.97
2023-01-07T11:31:01.286Z,70.04
2023-01-07T11:36:39.402Z,70.61
2023-01-07T11:42:26.256Z,70.46
2023-01-07T11:47:48.189Z,70.51
2023-01-07T11:53:15.100Z,70.11
2023-01-07T11:58:39.157Z,70.38
2023-01-07T12:04:00.047Z,70.85
2023-01-07T12:09:25.922Z,70.26
2023-01-07T12:14:47.816Z,70.13
2023-01-07T12:20:33.947Z,70.33
2023-01-07T12:26:04.547Z,69.94
2023-01-07T12:31:40.254Z,69.23
2023-01-07T12:37:13.459Z,69.61
2023-01-07T12:42:39.314Z,69.19
2023-01-07T12:48:06.767Z,68.67
2023-01-07T12:53:42.583Z,68.54
2023-01-07T12:59:46.518Z,68.82
2023-01-07T13:04:55.313Z,68.90
2023-01-07T13:10:23.505Z,68.37
2023-01-07T13:15:44.464Z,68.24
2023-01-07T13:21:08.874Z,68.04
2023-01-07T13:27:09.489Z,68.47
2023-01-07T13:32:55.250Z,68.48
2023-01-07T13:38:41.811Z,68.39
2023-01-07T13:44:05.754Z,67.80
2023-01-07T13:49:36.370Z,67.99
2023-01-07T13:55:03.650Z,67.34
2023-01-07T14:00:44.047Z,67.45
2023-01-07T14:06:20.395Z,67.27
2023-01-07T14:11:56.181Z,67.83
2023-01-07T14:17:32.362Z,67.44
2023-01-07T14:23:10.669Z,67.69
2023-01-07T14:28:56.433Z,67.46
2023-01-07T14:34:24.339Z,67.89
2023-01-07T14:39:46.667Z,67.79
2023-01-07T14:45:41.638Z,68.02
2023-01-07T14:51:21.604Z,67.62
2023-01-07T14:56:51.717Z,67.86
2023-01-07T15:02:48.134Z,67.59
2023-01-07T15:08:33.532Z,68.10
2023-01-07T15:14:22.173Z,67.85
2023-01-07T15:19:44.377Z,68.14
2023-01-07T15:25:26.964Z,67.82
2023-01-07T15:31:07.084Z,67.96
2023-01-07T15:36:30.350Z,68.19
2023-01-07T15:41:56.486Z,68.04
2023-01-07T15:47:43.564Z,67.95
2023-01-07T15:53:10.749Z,67.95
2023-01-07T15:58:48.962Z,68.00
2023-01-07T16:04:42.008Z,67.89
2023-01-07T16:10:04.380Z,67.65
2023-01-07T16:15:33.985Z,67.55
2023-01-07T16:20:58.391Z,67.83
2023-01-07T16:26:24.853Z,67.83
2023-01-07T16:31:46.497Z,68.08
2023-01-07T16:37:15.215Z,68.01
2023-01-07T16:42:36.425Z,67.77
2023-01-07T16:48:20.313Z,67.91
2023-01-07T16:53:41.363Z,68.24
2023-01-07T16:59:02.177Z,68.03
2023-01-07T17:04:29.934Z,67.99
2023-01-07T17:09:58.043Z,67.95
2023-01-07T17:15:41.651Z,68.10
2023-01-07T17:21:05.002Z,68.02
2023-01-07T17:26:28.211Z,68.16
2023-01-07T17:31:49.809Z,68.38
2023-01-07T17:37:14.725Z,68.36
2023-01-07T17:42:53.965Z,68.21
2023-01-07T17:48:15.195Z,68.48
2023-01-07T17:53:45.693Z,68.47
2023-01-07T17:59:09.770Z,68.70
2023-01-07T18:04:30.517Z,68.77
2023-01-07T18:09:51.429Z,68.78
2023-01-07T18:15:18.002Z,68.70
2023-01-07T18:20:38.779Z,68.75
2023-01-07T18:25:59.838Z,68.82
2023-01-07T18:31:20.990Z,69.02
2023-01-07T18:36:42.287Z,68.96
2023-01-07T18:42:03.196Z,69.13
2023-01-07T18:47:23.992Z,68.83
2023-01-07T18:52:44.974Z,68.82
2023-01-07T18:58:06.653Z,68.86
2023-01-07T19:03:27.990Z,68.95
2023-01-07T19:08:49.103Z,69.17
2023-01-07T19:14:10.651Z,68.76
2023-01-07T19:19:39.962Z,68.75
2023-01-07T19:25:08.672Z,68.95
2023-01-07T19:30:31.977Z,68.90
2023-01-07T19:36:04.430Z,68.75
2023-01-07T19:41:26.160Z,68.84
2023-01-07T19:46:47.722Z,68.76
2023-01-07T19:52:08.598Z,68.96
2023-01-07T19:57:29.467Z,68.99
2023-01-07T20:02:50.882Z,69.27
2023-01-07T20:08:11.798Z,69.57
2023-01-07T20:13:34.922Z,69.56
2023-01-07T20:18:56.776Z,69.37
2023-01-07T20:24:17.680Z,69.76
2023-01-07T20:29:38.815Z,69.99
2023-01-07T20:34:59.737Z,69.66
2023-01-07T20:40:21.962Z,69.48
2023-01-07T20:45:44.220Z,70.02
2023-01-07T20:51:07.443Z,70.12
2023-01-07T20:56:32.243Z,70.05
2023-01-07T21:01:53.714Z,70.21
2023-01-07T21:07:14.605Z,70.11
2023-01-07T21:12:35.462Z,70.10
2023-01-07T21:17:56.318Z,70.40
2023-01-07T21:23:17.595Z,70.46
2023-01-07T21:28:38.246Z,70.23
2023-01-07T21:33:59.154Z,70.59
2023-01-07T21:39:19.855Z,70.98
2023-01-07T21:44:40.778Z,71.22
2023-01-07T21:50:01.936Z,71.30
2023-01-07T21:55:22.704Z,70.85
2023-01-07T22:00:43.322Z,70.21
2023-01-07T22:06:09.049Z,69.95
2023-01-07T22:11:29.768Z,70.01
2023-01-07T22:16:50.508Z,69.73
2023-01-07T22:22:11.719Z,69.86
2023-01-07T22:27:32.197Z,69.83
2023-01-07T22:32:52.947Z,69.81
2023-01-07T22:38:14.525Z,69.64
2023-01-07T22:43:36.693Z,69.28
2023-01-07T22:48:58.951Z,69.72
2023-01-07T22:54:19.771Z,69.30
2023-01-07T22:59:40.999Z,69.57
2023-01-07T23:05:01.844Z,69.21
2023-01-07T23:10:22.547Z,68.92
2023-01-07T23:15:43.129Z,68.55
2023-01-07T23:21:05.109Z,68.74
2023-01-07T23:26:26.250Z,68.98
2023-01-07T23:31:47.224Z,69.43
2023-01-07T23:37:08.141Z,69.48
2023-01-07T23:42:28.917Z,69.76
2023-01-07T23:47:49.637Z,70.41
2023-01-07T23:53:10.294Z,71.03
2023-01-07T23:58:31.777Z,70.66
